sensor_id;sensor_type;location;lat;lon;timestamp;temperature;humidity
3053;DHT22;1536;51.098;6.414;2023-10-31T00:01:05;13.70;99.90
3053;DHT22;1536;51.098;6.414;2023-10-31T00:03:33;13.70;99.90
3053;DHT22;1536;51.098;6.414;2023-10-31T00:06:02;13.70;99.90
3053;DHT22;1536;51.098;6.414;2023-10-31T00:08:29;13.60;99.90
3053;DHT22;1536;51.098;6.414;2023-10-31T00:10:55;13.60;99.90
3053;DHT22;1536;51.098;6.414;2023-10-31T00:13:22;13.60;99.90
3053;DHT22;1536;51.098;6.414;2023-10-31T00:15:49;13.60;99.90
3053;DHT22;1536;51.098;6.414;2023-10-31T00:18:15;13.60;99.90
3053;DHT22;1536;51.098;6.414;2023-10-31T00:20:45;13.60;99.90
3053;DHT22;1536;51.098;6.414;2023-10-31T00:23:12;13.60;99.90
3053;DHT22;1536;51.098;6.414;2023-10-31T00:25:39;13.60;99.90
3053;DHT22;1536;51.098;6.414;2023-10-31T00:28:06;13.60;99.90
3053;DHT22;1536;51.098;6.414;2023-10-31T00:30:32;13.60;99.90
3053;DHT22;1536;51.098;6.414;2023-10-31T00:32:59;13.60;99.90
3053;DHT22;1536;51.098;6.414;2023-10-31T00:35:26;13.60;99.90
3053;DHT22;1536;51.098;6.414;2023-10-31T00:37:54;13.60;99.90
3053;DHT22;1536;51.098;6.414;2023-10-31T00:40:21;13.60;99.90
3053;DHT22;1536;51.098;6.414;2023-10-31T00:42:47;13.60;99.90
3053;DHT22;1536;51.098;6.414;2023-10-31T00:45:14;13.60;99.90
3053;DHT22;1536;51.098;6.414;2023-10-31T00:47:41;13.50;99.90
3053;DHT22;1536;51.098;6.414;2023-10-31T00:50:08;13.50;99.90
3053;DHT22;1536;51.098;6.414;2023-10-31T00:52:35;13.50;99.90
3053;DHT22;1536;51.098;6.414;2023-10-31T00:55:03;13.50;99.90
3053;DHT22;1536;51.098;6.414;2023-10-31T00:57:30;13.50;99.90
3053;DHT22;1536;51.098;6.414;2023-10-31T00:59:57;13.50;99.90
3053;DHT22;1536;51.098;6.414;2023-10-31T01:02:23;13.40;99.90
3053;DHT22;1536;51.098;6.414;2023-10-31T01:04:50;13.40;99.90
3053;DHT22;1536;51.098;6.414;2023-10-31T01:07:17;13.40;99.90
3053;DHT22;1536;51.098;6.414;2023-10-31T01:09:44;13.40;99.90
3053;DHT22;1536;51.098;6.414;2023-10-31T01:12:12;13.40;99.90
3053;DHT22;1536;51.098;6.414;2023-10-31T01:14:38;13.40;99.90
3053;DHT22;1536;51.098;6.414;2023-10-31T01:17:05;13.40;99.90
3053;DHT22;1536;51.098;6.414;2023-10-31T01:19:32;13.40;99.90
3053;DHT22;1536;51.098;6.414;2023-10-31T01:21:58;13.40;99.90
3053;DHT22;1536;51.098;6.414;2023-10-31T01:24:24;13.40;99.90
3053;DHT22;1536;51.098;6.414;2023-10-31T01:26:51;13.40;99.90
3053;DHT22;1536;51.098;6.414;2023-10-31T01:29:19;13.30;99.90
3053;DHT22;1536;51.098;6.414;2023-10-31T01:31:46;13.30;99.90
3053;DHT22;1536;51.098;6.414;2023-10-31T01:34:13;13.30;99.90
3053;DHT22;1536;51.098;6.414;2023-10-31T01:36:39;13.30;99.90
3053;DHT22;1536;51.098;6.414;2023-10-31T01:39:06;13.30;99.90
3053;DHT22;1536;51.098;6.414;2023-10-31T01:41:33;13.30;99.90
3053;DHT22;1536;51.098;6.414;2023-10-31T01:44:00;13.30;99.90
3053;DHT22;1536;51.098;6.414;2023-10-31T01:46:28;13.30;99.90
3053;DHT22;1536;51.098;6.414;2023-10-31T01:48:55;13.30;99.90
3053;DHT22;1536;51.098;6.414;2023-10-31T01:51:21;13.30;99.90
3053;DHT22;1536;51.098;6.414;2023-10-31T01:53:48;13.20;99.90
3053;DHT22;1536;51.098;6.414;2023-10-31T01:56:15;13.20;99.90
3053;DHT22;1536;51.098;6.414;2023-10-31T01:58:42;13.20;99.90
3053;DHT22;1536;51.098;6.414;2023-10-31T02:01:09;13.20;99.90
3053;DHT22;1536;51.098;6.414;2023-10-31T02:03:37;13.20;99.90
3053;DHT22;1536;51.098;6.414;2023-10-31T02:06:04;13.20;99.90
3053;DHT22;1536;51.098;6.414;2023-10-31T02:08:31;13.20;99.90
3053;DHT22;1536;51.098;6.414;2023-10-31T02:10:58;13.10;99.90
3053;DHT22;1536;51.098;6.414;2023-10-31T02:13:25;13.20;99.90
3053;DHT22;1536;51.098;6.414;2023-10-31T02:15:52;13.10;99.90
3053;DHT22;1536;51.098;6.414;2023-10-31T02:18:19;13.10;99.90
3053;DHT22;1536;51.098;6.414;2023-10-31T02:20:48;13.10;99.90
3053;DHT22;1536;51.098;6.414;2023-10-31T02:23:16;13.10;99.90
3053;DHT22;1536;51.098;6.414;2023-10-31T02:25:43;13.10;99.90
3053;DHT22;1536;51.098;6.414;2023-10-31T02:28:10;13.10;99.90
3053;DHT22;1536;51.098;6.414;2023-10-31T02:30:37;13.10;99.90
3053;DHT22;1536;51.098;6.414;2023-10-31T02:33:03;13.10;99.90
3053;DHT22;1536;51.098;6.414;2023-10-31T02:35:30;13.10;99.90
3053;DHT22;1536;51.098;6.414;2023-10-31T02:37:57;13.10;99.90
3053;DHT22;1536;51.098;6.414;2023-10-31T02:40:26;13.10;99.90
3053;DHT22;1536;51.098;6.414;2023-10-31T02:42:52;13.10;99.90
3053;DHT22;1536;51.098;6.414;2023-10-31T02:45:19;13.10;99.90
3053;DHT22;1536;51.098;6.414;2023-10-31T02:47:46;13.10;99.90
3053;DHT22;1536;51.098;6.414;2023-10-31T02:50:12;13.10;99.90
3053;DHT22;1536;51.098;6.414;2023-10-31T02:52:39;13.10;99.90
3053;DHT22;1536;51.098;6.414;2023-10-31T02:55:06;13.10;99.90
3053;DHT22;1536;51.098;6.414;2023-10-31T02:57:34;13.10;99.90
3053;DHT22;1536;51.098;6.414;2023-10-31T03:00:01;13.10;99.90
3053;DHT22;1536;51.098;6.414;2023-10-31T03:02:28;13.00;99.90
3053;DHT22;1536;51.098;6.414;2023-10-31T03:04:55;13.10;99.90
3053;DHT22;1536;51.098;6.414;2023-10-31T03:07:22;13.00;99.90
3053;DHT22;1536;51.098;6.414;2023-10-31T03:09:48;13.10;99.90
3053;DHT22;1536;51.098;6.414;2023-10-31T03:12:15;13.10;99.90
3053;DHT22;1536;51.098;6.414;2023-10-31T03:14:43;13.00;99.90
3053;DHT22;1536;51.098;6.414;2023-10-31T03:17:10;13.00;99.90
3053;DHT22;1536;51.098;6.414;2023-10-31T03:19:37;13.00;99.90
3053;DHT22;1536;51.098;6.414;2023-10-31T03:22:03;13.00;99.90
3053;DHT22;1536;51.098;6.414;2023-10-31T03:24:31;13.00;99.90
3053;DHT22;1536;51.098;6.414;2023-10-31T03:26:58;13.00;99.90
3053;DHT22;1536;51.098;6.414;2023-10-31T03:29:27;13.10;99.90
3053;DHT22;1536;51.098;6.414;2023-10-31T03:31:55;13.10;99.90
3053;DHT22;1536;51.098;6.414;2023-10-31T03:34:22;13.10;99.90
3053;DHT22;1536;51.098;6.414;2023-10-31T03:36:48;13.10;99.90
3053;DHT22;1536;51.098;6.414;2023-10-31T03:39:15;13.10;99.90
3053;DHT22;1536;51.098;6.414;2023-10-31T03:41:42;13.10;99.90
3053;DHT22;1536;51.098;6.414;2023-10-31T03:44:08;13.10;99.90
3053;DHT22;1536;51.098;6.414;2023-10-31T03:46:35;13.10;99.90
3053;DHT22;1536;51.098;6.414;2023-10-31T03:49:03;13.10;99.90
3053;DHT22;1536;51.098;6.414;2023-10-31T03:51:32;13.10;99.90
3053;DHT22;1536;51.098;6.414;2023-10-31T03:53:59;13.10;99.90
3053;DHT22;1536;51.098;6.414;2023-10-31T03:56:26;13.00;99.90
3053;DHT22;1536;51.098;6.414;2023-10-31T03:58:53;13.00;99.90
3053;DHT22;1536;51.098;6.414;2023-10-31T04:01:19;13.10;99.90
3053;DHT22;1536;51.098;6.414;2023-10-31T04:03:46;13.10;99.90
3053;DHT22;1536;51.098;6.414;2023-10-31T04:06:14;13.10;99.90
3053;DHT22;1536;51.098;6.414;2023-10-31T04:08:41;13.10;99.90
3053;DHT22;1536;51.098;6.414;2023-10-31T04:11:07;13.10;99.90
3053;DHT22;1536;51.098;6.414;2023-10-31T04:13:34;13.10;99.90
3053;DHT22;1536;51.098;6.414;2023-10-31T04:16:01;13.10;99.90
3053;DHT22;1536;51.098;6.414;2023-10-31T04:18:27;13.10;99.90
3053;DHT22;1536;51.098;6.414;2023-10-31T04:20:54;13.10;99.90
3053;DHT22;1536;51.098;6.414;2023-10-31T04:23:22;13.10;99.90
3053;DHT22;1536;51.098;6.414;2023-10-31T04:25:49;13.10;99.90
3053;DHT22;1536;51.098;6.414;2023-10-31T04:28:17;13.10;99.90
3053;DHT22;1536;51.098;6.414;2023-10-31T04:30:44;13.10;99.90
3053;DHT22;1536;51.098;6.414;2023-10-31T04:33:11;13.10;99.90
3053;DHT22;1536;51.098;6.414;2023-10-31T04:35:38;13.10;99.90
3053;DHT22;1536;51.098;6.414;2023-10-31T04:38:05;13.10;99.90
3053;DHT22;1536;51.098;6.414;2023-10-31T04:40:33;13.10;99.90
3053;DHT22;1536;51.098;6.414;2023-10-31T04:43:01;13.10;99.90
3053;DHT22;1536;51.098;6.414;2023-10-31T04:45:28;13.10;99.90
3053;DHT22;1536;51.098;6.414;2023-10-31T04:47:54;13.00;99.90
3053;DHT22;1536;51.098;6.414;2023-10-31T04:50:21;13.10;99.90
3053;DHT22;1536;51.098;6.414;2023-10-31T04:52:48;13.10;99.90
3053;DHT22;1536;51.098;6.414;2023-10-31T04:55:15;13.00;99.90
3053;DHT22;1536;51.098;6.414;2023-10-31T04:57:43;13.00;99.90
3053;DHT22;1536;51.098;6.414;2023-10-31T05:00:10;13.00;99.90
3053;DHT22;1536;51.098;6.414;2023-10-31T05:02:37;13.00;99.90
3053;DHT22;1536;51.098;6.414;2023-10-31T05:05:07;13.10;99.90
3053;DHT22;1536;51.098;6.414;2023-10-31T05:07:34;13.00;99.90
3053;DHT22;1536;51.098;6.414;2023-10-31T05:10:01;13.00;99.90
3053;DHT22;1536;51.098;6.414;2023-10-31T05:12:27;13.10;99.90
3053;DHT22;1536;51.098;6.414;2023-10-31T05:14:55;13.10;99.90
3053;DHT22;1536;51.098;6.414;2023-10-31T05:17:22;13.10;99.90
3053;DHT22;1536;51.098;6.414;2023-10-31T05:19:49;13.10;99.90
3053;DHT22;1536;51.098;6.414;2023-10-31T05:22:15;13.00;99.90
3053;DHT22;1536;51.098;6.414;2023-10-31T05:24:42;13.10;99.90
3053;DHT22;1536;51.098;6.414;2023-10-31T05:27:09;13.00;99.90
3053;DHT22;1536;51.098;6.414;2023-10-31T05:29:35;13.00;99.90
3053;DHT22;1536;51.098;6.414;2023-10-31T05:32:04;13.00;99.90
3053;DHT22;1536;51.098;6.414;2023-10-31T05:34:31;13.00;99.90
3053;DHT22;1536;51.098;6.414;2023-10-31T05:36:58;13.00;99.90
3053;DHT22;1536;51.098;6.414;2023-10-31T05:39:24;13.00;99.90
3053;DHT22;1536;51.098;6.414;2023-10-31T05:41:52;13.10;99.90
3053;DHT22;1536;51.098;6.414;2023-10-31T05:44:18;13.10;99.90
3053;DHT22;1536;51.098;6.414;2023-10-31T05:46:45;13.00;99.90
3053;DHT22;1536;51.098;6.414;2023-10-31T05:49:13;13.10;99.90
3053;DHT22;1536;51.098;6.414;2023-10-31T05:51:40;13.10;99.90
3053;DHT22;1536;51.098;6.414;2023-10-31T05:54:07;13.10;99.90
3053;DHT22;1536;51.098;6.414;2023-10-31T05:56:34;13.10;99.90
3053;DHT22;1536;51.098;6.414;2023-10-31T05:59:00;13.10;99.90
3053;DHT22;1536;51.098;6.414;2023-10-31T06:01:27;13.10;99.90
3053;DHT22;1536;51.098;6.414;2023-10-31T06:03:54;13.10;99.90
3053;DHT22;1536;51.098;6.414;2023-10-31T06:06:22;13.10;99.90
3053;DHT22;1536;51.098;6.414;2023-10-31T06:08:49;13.10;99.90
3053;DHT22;1536;51.098;6.414;2023-10-31T06:11:15;13.10;99.90
3053;DHT22;1536;51.098;6.414;2023-10-31T06:13:42;13.10;99.90
3053;DHT22;1536;51.098;6.414;2023-10-31T06:16:09;13.10;99.90
3053;DHT22;1536;51.098;6.414;2023-10-31T06:18:37;13.10;99.90
3053;DHT22;1536;51.098;6.414;2023-10-31T06:21:04;13.10;99.90
3053;DHT22;1536;51.098;6.414;2023-10-31T06:23:32;13.10;99.90
3053;DHT22;1536;51.098;6.414;2023-10-31T06:25:59;13.10;99.90
3053;DHT22;1536;51.098;6.414;2023-10-31T06:28:26;13.10;99.90
3053;DHT22;1536;51.098;6.414;2023-10-31T06:30:52;13.10;99.90
3053;DHT22;1536;51.098;6.414;2023-10-31T06:33:19;13.10;99.90
3053;DHT22;1536;51.098;6.414;2023-10-31T06:35:46;13.10;99.90
3053;DHT22;1536;51.098;6.414;2023-10-31T06:38:12;13.10;99.90
3053;DHT22;1536;51.098;6.414;2023-10-31T06:40:40;13.10;99.90
3053;DHT22;1536;51.098;6.414;2023-10-31T06:43:07;13.10;99.90
3053;DHT22;1536;51.098;6.414;2023-10-31T06:45:34;13.10;99.90
3053;DHT22;1536;51.098;6.414;2023-10-31T06:48:01;13.10;99.90
3053;DHT22;1536;51.098;6.414;2023-10-31T06:50:28;13.10;99.90
3053;DHT22;1536;51.098;6.414;2023-10-31T06:52:55;13.10;99.90
3053;DHT22;1536;51.098;6.414;2023-10-31T06:55:21;13.10;99.90
3053;DHT22;1536;51.098;6.414;2023-10-31T06:57:49;13.10;99.90
3053;DHT22;1536;51.098;6.414;2023-10-31T07:00:17;13.10;99.90
3053;DHT22;1536;51.098;6.414;2023-10-31T07:02:43;13.10;99.90
3053;DHT22;1536;51.098;6.414;2023-10-31T07:05:10;13.10;99.90
3053;DHT22;1536;51.098;6.414;2023-10-31T07:07:37;13.10;99.90
3053;DHT22;1536;51.098;6.414;2023-10-31T07:10:04;13.10;99.90
3053;DHT22;1536;51.098;6.414;2023-10-31T07:12:31;13.10;99.90
3053;DHT22;1536;51.098;6.414;2023-10-31T07:14:59;13.10;99.90
3053;DHT22;1536;51.098;6.414;2023-10-31T07:17:26;13.00;99.90
3053;DHT22;1536;51.098;6.414;2023-10-31T07:19:53;13.00;99.90
3053;DHT22;1536;51.098;6.414;2023-10-31T07:22:20;13.00;99.90
3053;DHT22;1536;51.098;6.414;2023-10-31T07:24:47;13.00;99.90
3053;DHT22;1536;51.098;6.414;2023-10-31T07:27:14;13.10;99.90
3053;DHT22;1536;51.098;6.414;2023-10-31T07:29:41;13.10;99.90
3053;DHT22;1536;51.098;6.414;2023-10-31T07:32:09;13.10;99.90
3053;DHT22;1536;51.098;6.414;2023-10-31T07:34:36;13.10;99.90
3053;DHT22;1536;51.098;6.414;2023-10-31T07:37:03;13.00;99.90
3053;DHT22;1536;51.098;6.414;2023-10-31T07:39:29;13.10;99.90
3053;DHT22;1536;51.098;6.414;2023-10-31T07:41:56;13.10;99.90
3053;DHT22;1536;51.098;6.414;2023-10-31T07:44:23;13.10;99.90
3053;DHT22;1536;51.098;6.414;2023-10-31T07:46:49;13.10;99.90
3053;DHT22;1536;51.098;6.414;2023-10-31T07:49:17;13.10;99.90
3053;DHT22;1536;51.098;6.414;2023-10-31T07:51:44;13.10;99.90
3053;DHT22;1536;51.098;6.414;2023-10-31T07:54:13;13.20;99.90
3053;DHT22;1536;51.098;6.414;2023-10-31T07:56:40;13.20;99.90
3053;DHT22;1536;51.098;6.414;2023-10-31T07:59:06;13.20;99.90
3053;DHT22;1536;51.098;6.414;2023-10-31T08:01:34;13.20;99.90
3053;DHT22;1536;51.098;6.414;2023-10-31T08:04:04;13.20;99.90
3053;DHT22;1536;51.098;6.414;2023-10-31T08:06:32;13.20;99.90
3053;DHT22;1536;51.098;6.414;2023-10-31T08:08:59;13.30;99.90
3053;DHT22;1536;51.098;6.414;2023-10-31T08:11:26;13.30;99.90
3053;DHT22;1536;51.098;6.414;2023-10-31T08:13:52;13.30;99.90
3053;DHT22;1536;51.098;6.414;2023-10-31T08:16:19;13.30;99.90
3053;DHT22;1536;51.098;6.414;2023-10-31T08:18:46;13.30;99.90
3053;DHT22;1536;51.098;6.414;2023-10-31T08:21:13;13.30;99.90
3053;DHT22;1536;51.098;6.414;2023-10-31T08:23:41;13.30;99.90
3053;DHT22;1536;51.098;6.414;2023-10-31T08:26:10;13.30;99.90
3053;DHT22;1536;51.098;6.414;2023-10-31T08:28:38;13.20;99.90
3053;DHT22;1536;51.098;6.414;2023-10-31T08:31:04;13.30;99.90
3053;DHT22;1536;51.098;6.414;2023-10-31T08:33:31;13.30;99.90
3053;DHT22;1536;51.098;6.414;2023-10-31T08:35:58;13.30;99.90
3053;DHT22;1536;51.098;6.414;2023-10-31T08:38:26;13.30;99.90
3053;DHT22;1536;51.098;6.414;2023-10-31T08:40:55;13.30;99.90
3053;DHT22;1536;51.098;6.414;2023-10-31T08:43:22;13.30;99.90
3053;DHT22;1536;51.098;6.414;2023-10-31T08:45:48;13.30;99.90
3053;DHT22;1536;51.098;6.414;2023-10-31T08:48:15;13.30;99.90
3053;DHT22;1536;51.098;6.414;2023-10-31T08:50:42;13.30;99.90
3053;DHT22;1536;51.098;6.414;2023-10-31T08:53:10;13.30;99.90
3053;DHT22;1536;51.098;6.414;2023-10-31T08:55:36;13.40;99.90
3053;DHT22;1536;51.098;6.414;2023-10-31T08:58:04;13.30;99.90
3053;DHT22;1536;51.098;6.414;2023-10-31T09:00:31;13.30;99.90
3053;DHT22;1536;51.098;6.414;2023-10-31T09:02:58;13.40;99.90
3053;DHT22;1536;51.098;6.414;2023-10-31T09:05:25;13.40;99.90
3053;DHT22;1536;51.098;6.414;2023-10-31T09:07:51;13.40;99.90
3053;DHT22;1536;51.098;6.414;2023-10-31T09:10:18;13.40;99.90
3053;DHT22;1536;51.098;6.414;2023-10-31T09:12:45;13.50;99.90
3053;DHT22;1536;51.098;6.414;2023-10-31T09:15:13;13.50;99.90
3053;DHT22;1536;51.098;6.414;2023-10-31T09:17:40;13.50;99.90
3053;DHT22;1536;51.098;6.414;2023-10-31T09:20:08;13.50;99.90
3053;DHT22;1536;51.098;6.414;2023-10-31T09:22:35;13.50;99.90
3053;DHT22;1536;51.098;6.414;2023-10-31T09:25:01;13.50;99.90
3053;DHT22;1536;51.098;6.414;2023-10-31T09:27:29;13.50;99.90
3053;DHT22;1536;51.098;6.414;2023-10-31T09:29:55;13.50;99.90
3053;DHT22;1536;51.098;6.414;2023-10-31T09:32:23;13.50;99.90
3053;DHT22;1536;51.098;6.414;2023-10-31T09:34:50;13.50;99.90
3053;DHT22;1536;51.098;6.414;2023-10-31T09:37:17;13.50;99.90
3053;DHT22;1536;51.098;6.414;2023-10-31T09:39:44;13.60;99.90
3053;DHT22;1536;51.098;6.414;2023-10-31T09:42:10;13.60;99.90
3053;DHT22;1536;51.098;6.414;2023-10-31T09:44:37;13.60;99.90
3053;DHT22;1536;51.098;6.414;2023-10-31T09:47:05;13.60;99.90
3053;DHT22;1536;51.098;6.414;2023-10-31T09:49:34;13.60;99.90
3053;DHT22;1536;51.098;6.414;2023-10-31T09:52:01;13.60;99.90
3053;DHT22;1536;51.098;6.414;2023-10-31T09:54:28;13.60;99.90
3053;DHT22;1536;51.098;6.414;2023-10-31T09:56:56;13.70;99.90
3053;DHT22;1536;51.098;6.414;2023-10-31T09:59:22;13.70;99.90
3053;DHT22;1536;51.098;6.414;2023-10-31T10:01:49;13.80;99.90
3053;DHT22;1536;51.098;6.414;2023-10-31T10:04:16;13.80;99.90
3053;DHT22;1536;51.098;6.414;2023-10-31T10:06:58;13.80;99.90
3053;DHT22;1536;51.098;6.414;2023-10-31T10:09:26;13.80;99.90
3053;DHT22;1536;51.098;6.414;2023-10-31T10:11:53;13.90;99.90
3053;DHT22;1536;51.098;6.414;2023-10-31T10:14:20;13.90;99.90
3053;DHT22;1536;51.098;6.414;2023-10-31T10:16:49;13.90;99.90
3053;DHT22;1536;51.098;6.414;2023-10-31T10:19:16;13.90;99.90
3053;DHT22;1536;51.098;6.414;2023-10-31T10:21:48;13.90;99.90
3053;DHT22;1536;51.098;6.414;2023-10-31T10:24:17;13.90;99.90
3053;DHT22;1536;51.098;6.414;2023-10-31T10:26:44;13.90;99.90
3053;DHT22;1536;51.098;6.414;2023-10-31T10:29:11;13.90;99.90
3053;DHT22;1536;51.098;6.414;2023-10-31T10:31:38;13.90;99.90
3053;DHT22;1536;51.098;6.414;2023-10-31T10:34:04;13.90;99.90
3053;DHT22;1536;51.098;6.414;2023-10-31T10:36:33;13.90;99.90
3053;DHT22;1536;51.098;6.414;2023-10-31T10:39:00;13.90;99.90
3053;DHT22;1536;51.098;6.414;2023-10-31T10:41:34;14.00;99.90
3053;DHT22;1536;51.098;6.414;2023-10-31T10:44:04;14.00;99.90
3053;DHT22;1536;51.098;6.414;2023-10-31T10:46:34;14.10;99.90
3053;DHT22;1536;51.098;6.414;2023-10-31T10:49:04;14.10;99.90
3053;DHT22;1536;51.098;6.414;2023-10-31T10:51:40;14.10;99.90
3053;DHT22;1536;51.098;6.414;2023-10-31T10:54:15;14.10;99.90
3053;DHT22;1536;51.098;6.414;2023-10-31T10:56:49;14.10;99.90
3053;DHT22;1536;51.098;6.414;2023-10-31T10:59:22;14.10;99.90
3053;DHT22;1536;51.098;6.414;2023-10-31T11:01:56;14.10;99.90
3053;DHT22;1536;51.098;6.414;2023-10-31T11:04:26;14.10;99.90
3053;DHT22;1536;51.098;6.414;2023-10-31T11:06:52;14.10;99.90
3053;DHT22;1536;51.098;6.414;2023-10-31T11:09:19;14.10;99.90
3053;DHT22;1536;51.098;6.414;2023-10-31T11:11:47;14.10;99.90
3053;DHT22;1536;51.098;6.414;2023-10-31T11:14:15;14.00;99.90
3053;DHT22;1536;51.098;6.414;2023-10-31T11:16:45;14.00;99.90
3053;DHT22;1536;51.098;6.414;2023-10-31T11:19:15;14.00;99.90
3053;DHT22;1536;51.098;6.414;2023-10-31T11:21:53;14.10;99.90
3053;DHT22;1536;51.098;6.414;2023-10-31T11:24:20;14.10;99.90
3053;DHT22;1536;51.098;6.414;2023-10-31T11:27:00;14.20;99.90
3053;DHT22;1536;51.098;6.414;2023-10-31T11:29:27;14.20;99.90
3053;DHT22;1536;51.098;6.414;2023-10-31T11:31:55;14.20;99.90
3053;DHT22;1536;51.098;6.414;2023-10-31T11:34:23;14.20;99.90
3053;DHT22;1536;51.098;6.414;2023-10-31T11:36:52;14.30;99.90
3053;DHT22;1536;51.098;6.414;2023-10-31T11:39:20;14.30;99.90
3053;DHT22;1536;51.098;6.414;2023-10-31T11:41:54;14.30;99.90
3053;DHT22;1536;51.098;6.414;2023-10-31T11:44:22;14.30;99.90
3053;DHT22;1536;51.098;6.414;2023-10-31T11:46:50;14.30;99.90
3053;DHT22;1536;51.098;6.414;2023-10-31T11:49:17;14.30;99.90
3053;DHT22;1536;51.098;6.414;2023-10-31T11:51:44;14.30;99.90
3053;DHT22;1536;51.098;6.414;2023-10-31T11:54:13;14.30;99.90
3053;DHT22;1536;51.098;6.414;2023-10-31T11:56:40;14.30;99.90
3053;DHT22;1536;51.098;6.414;2023-10-31T11:59:08;14.30;99.90
3053;DHT22;1536;51.098;6.414;2023-10-31T12:01:44;14.30;99.90
3053;DHT22;1536;51.098;6.414;2023-10-31T12:04:21;14.40;99.90
3053;DHT22;1536;51.098;6.414;2023-10-31T12:06:57;14.40;99.90
3053;DHT22;1536;51.098;6.414;2023-10-31T12:09:24;14.50;99.90
3053;DHT22;1536;51.098;6.414;2023-10-31T12:11:51;14.50;99.90
3053;DHT22;1536;51.098;6.414;2023-10-31T12:14:21;14.60;99.90
3053;DHT22;1536;51.098;6.414;2023-10-31T12:16:48;14.60;99.90
3053;DHT22;1536;51.098;6.414;2023-10-31T12:19:15;14.70;99.90
3053;DHT22;1536;51.098;6.414;2023-10-31T12:21:42;14.70;99.90
3053;DHT22;1536;51.098;6.414;2023-10-31T12:24:11;14.80;99.90
3053;DHT22;1536;51.098;6.414;2023-10-31T12:26:39;14.80;99.90
3053;DHT22;1536;51.098;6.414;2023-10-31T12:29:13;14.80;99.90
3053;DHT22;1536;51.098;6.414;2023-10-31T12:31:43;14.80;99.90
3053;DHT22;1536;51.098;6.414;2023-10-31T12:34:10;14.80;99.90
3053;DHT22;1536;51.098;6.414;2023-10-31T12:36:38;14.80;99.90
3053;DHT22;1536;51.098;6.414;2023-10-31T12:39:07;14.80;99.90
3053;DHT22;1536;51.098;6.414;2023-10-31T12:41:37;14.80;99.90
3053;DHT22;1536;51.098;6.414;2023-10-31T12:44:05;14.90;99.90
3053;DHT22;1536;51.098;6.414;2023-10-31T12:46:33;14.90;99.90
3053;DHT22;1536;51.098;6.414;2023-10-31T12:49:02;14.90;99.90
3053;DHT22;1536;51.098;6.414;2023-10-31T12:51:28;14.90;99.90
3053;DHT22;1536;51.098;6.414;2023-10-31T12:53:55;15.00;99.90
3053;DHT22;1536;51.098;6.414;2023-10-31T12:56:35;14.90;99.90
3053;DHT22;1536;51.098;6.414;2023-10-31T12:59:04;14.90;99.90
3053;DHT22;1536;51.098;6.414;2023-10-31T13:01:33;14.90;99.90
3053;DHT22;1536;51.098;6.414;2023-10-31T13:04:02;14.90;99.90
3053;DHT22;1536;51.098;6.414;2023-10-31T13:06:29;14.90;99.90
3053;DHT22;1536;51.098;6.414;2023-10-31T13:08:56;14.90;99.90
3053;DHT22;1536;51.098;6.414;2023-10-31T13:11:23;14.80;99.90
3053;DHT22;1536;51.098;6.414;2023-10-31T13:13:51;14.80;99.90
3053;DHT22;1536;51.098;6.414;2023-10-31T13:16:19;14.80;99.90
3053;DHT22;1536;51.098;6.414;2023-10-31T13:18:46;14.80;99.90
3053;DHT22;1536;51.098;6.414;2023-10-31T13:21:14;14.80;99.90
3053;DHT22;1536;51.098;6.414;2023-10-31T13:23:43;14.80;99.90
3053;DHT22;1536;51.098;6.414;2023-10-31T13:26:11;14.80;99.90
3053;DHT22;1536;51.098;6.414;2023-10-31T13:28:37;14.80;99.90
3053;DHT22;1536;51.098;6.414;2023-10-31T13:31:05;14.80;99.90
3053;DHT22;1536;51.098;6.414;2023-10-31T13:33:32;14.80;99.90
3053;DHT22;1536;51.098;6.414;2023-10-31T13:35:58;14.80;99.90
3053;DHT22;1536;51.098;6.414;2023-10-31T13:38:27;14.80;99.90
3053;DHT22;1536;51.098;6.414;2023-10-31T13:40:53;14.80;99.90
3053;DHT22;1536;51.098;6.414;2023-10-31T13:43:20;14.80;99.90
3053;DHT22;1536;51.098;6.414;2023-10-31T13:45:47;14.80;99.90
3053;DHT22;1536;51.098;6.414;2023-10-31T13:48:14;14.80;99.90
3053;DHT22;1536;51.098;6.414;2023-10-31T13:50:40;14.80;99.90
3053;DHT22;1536;51.098;6.414;2023-10-31T13:53:07;14.90;99.90
3053;DHT22;1536;51.098;6.414;2023-10-31T13:55:35;14.90;99.90
3053;DHT22;1536;51.098;6.414;2023-10-31T13:58:02;14.90;99.90
3053;DHT22;1536;51.098;6.414;2023-10-31T14:00:29;14.90;99.90
3053;DHT22;1536;51.098;6.414;2023-10-31T14:02:56;14.90;99.90
3053;DHT22;1536;51.098;6.414;2023-10-31T14:05:22;14.90;99.90
3053;DHT22;1536;51.098;6.414;2023-10-31T14:07:50;14.90;99.90
3053;DHT22;1536;51.098;6.414;2023-10-31T14:10:17;14.90;99.90
3053;DHT22;1536;51.098;6.414;2023-10-31T14:12:46;15.00;99.90
3053;DHT22;1536;51.098;6.414;2023-10-31T14:15:13;15.00;99.90
3053;DHT22;1536;51.098;6.414;2023-10-31T14:17:40;15.00;99.90
3053;DHT22;1536;51.098;6.414;2023-10-31T14:20:07;15.00;99.90
3053;DHT22;1536;51.098;6.414;2023-10-31T14:22:34;15.00;99.90
3053;DHT22;1536;51.098;6.414;2023-10-31T14:25:01;15.00;99.90
3053;DHT22;1536;51.098;6.414;2023-10-31T14:27:30;14.90;99.90
3053;DHT22;1536;51.098;6.414;2023-10-31T14:29:58;14.90;99.90
3053;DHT22;1536;51.098;6.414;2023-10-31T14:32:25;14.90;99.90
3053;DHT22;1536;51.098;6.414;2023-10-31T14:34:51;14.90;99.90
3053;DHT22;1536;51.098;6.414;2023-10-31T14:37:18;15.00;99.90
3053;DHT22;1536;51.098;6.414;2023-10-31T14:39:45;15.00;99.90
3053;DHT22;1536;51.098;6.414;2023-10-31T14:42:11;14.90;99.90
3053;DHT22;1536;51.098;6.414;2023-10-31T14:44:38;15.00;99.90
3053;DHT22;1536;51.098;6.414;2023-10-31T14:47:06;15.00;99.90
3053;DHT22;1536;51.098;6.414;2023-10-31T14:49:33;14.90;99.90
3053;DHT22;1536;51.098;6.414;2023-10-31T14:52:00;14.90;99.90
3053;DHT22;1536;51.098;6.414;2023-10-31T14:54:26;14.90;99.90
3053;DHT22;1536;51.098;6.414;2023-10-31T14:56:53;14.90;99.90
3053;DHT22;1536;51.098;6.414;2023-10-31T14:59:20;14.90;99.90
3053;DHT22;1536;51.098;6.414;2023-10-31T15:01:46;14.90;99.90
3053;DHT22;1536;51.098;6.414;2023-10-31T15:04:14;14.80;99.90
3053;DHT22;1536;51.098;6.414;2023-10-31T15:06:42;14.80;99.90
3053;DHT22;1536;51.098;6.414;2023-10-31T15:09:09;14.80;99.90
3053;DHT22;1536;51.098;6.414;2023-10-31T15:11:36;14.80;99.90
3053;DHT22;1536;51.098;6.414;2023-10-31T15:14:03;14.80;99.90
3053;DHT22;1536;51.098;6.414;2023-10-31T15:16:30;14.80;99.90
3053;DHT22;1536;51.098;6.414;2023-10-31T15:18:57;14.80;99.90
3053;DHT22;1536;51.098;6.414;2023-10-31T15:21:25;14.80;99.90
3053;DHT22;1536;51.098;6.414;2023-10-31T15:23:53;14.80;99.90
3053;DHT22;1536;51.098;6.414;2023-10-31T15:26:21;14.70;99.90
3053;DHT22;1536;51.098;6.414;2023-10-31T15:28:50;14.70;99.90
3053;DHT22;1536;51.098;6.414;2023-10-31T15:31:17;14.70;99.90
3053;DHT22;1536;51.098;6.414;2023-10-31T15:33:44;14.70;99.90
3053;DHT22;1536;51.098;6.414;2023-10-31T15:36:11;14.60;99.90
3053;DHT22;1536;51.098;6.414;2023-10-31T15:38:39;14.60;99.90
3053;DHT22;1536;51.098;6.414;2023-10-31T15:41:06;14.60;99.90
3053;DHT22;1536;51.098;6.414;2023-10-31T15:43:33;14.50;99.90
3053;DHT22;1536;51.098;6.414;2023-10-31T15:46:00;14.50;99.90
3053;DHT22;1536;51.098;6.414;2023-10-31T15:48:26;14.50;99.90
3053;DHT22;1536;51.098;6.414;2023-10-31T15:50:53;14.40;99.90
3053;DHT22;1536;51.098;6.414;2023-10-31T15:53:20;14.40;99.90
3053;DHT22;1536;51.098;6.414;2023-10-31T15:55:49;14.30;99.90
3053;DHT22;1536;51.098;6.414;2023-10-31T15:58:16;14.30;99.90
3053;DHT22;1536;51.098;6.414;2023-10-31T16:00:43;14.30;99.90
3053;DHT22;1536;51.098;6.414;2023-10-31T16:03:10;14.30;99.90